• Join FlightAware (Why Join?)
  • Login
  • US Flag 
07:25AM EDT


 

Airport Tracker/Info


-or-


 

Live Flight TrackerFlight Track Log ✈ N225MW ✈ 21-Aug-2013 ✈ KAUS - KMDD

Flight Track Log - Related Links

Times and Time Zones

All times are in EDT time to prevent confusion due to time zone crossing. See the N225MW flight status page for this flight to view local times or setup timezone preferences in your user account.

Time Position Orientation Groundspeed Altitude Reporting Facility
EDT Latitude Longitude Course Direction KTS MPH feet Rate Location/Type
03:39PM 30.2133 -97.7353 293° West 171 197 6,200  Level Houston Center
03:40PM 30.2439 -97.7767 311° West 175 201 7,900 840 Climbing Houston Center
03:41PM 30.2844 -97.8492 303° West 215 247 8,000  Climbing Houston Center
03:42PM 30.3236 -97.9214 302° West 252 290 8,000  Level Houston Center
03:43PM 30.4263 -97.6956 291° West  Level FlightAware Approximate
03:43PM 30.3644 -97.9964 302° West 263 303 8,000  Level Houston Center
03:44PM 30.4511 -97.7655 293° West  Level FlightAware Approximate
03:44PM 30.4036 -98.0669 303° West 261 300 8,000  Level Houston Center
03:45PM 30.4436 -98.1397 303° West 263 303 8,000 720 Level Houston Center
03:46PM 30.4811 -98.2033 304° West 240 276 9,600 1,380 Climbing Houston Center
03:47PM 30.5100 -98.2669 298° West 224 258 10,900 1,500 Climbing Houston Center
03:48PM 30.5178 -98.3303 278° West 198 228 12,700 1,620 Climbing Houston Center
03:49PM 30.5283 -98.4083 279° West 206 237 14,300 1,620 Climbing Houston Center
03:50PM 30.5500 -98.4650 294° West 190 219 16,100 1,500 Climbing Houston Center
03:51PM 30.5742 -98.5217 296° West 193 222 17,500 1,440 Climbing Houston Center
03:52PM 30.5872 -98.5883 283° West 207 238 19,100 1,500 Climbing Houston Center
03:53PM 30.6019 -98.6542 285° West 209 241 20,700 1,380 Climbing Houston Center
03:54PM 30.6136 -98.7233 281° West 215 247 22,000 1,260 Climbing Houston Center
03:55PM 30.6278 -98.7936 283° West 221 254 23,400 960 Climbing Houston Center
03:56PM 30.6511 -98.8772 288° West 230 265 24,000 240 Climbing Houston Center
03:57PM 30.6747 -98.9619 288° West 266 306 24,000  Level Houston Center
03:58PM 30.7006 -99.0503 289° West 284 327 24,000  Level Houston Center
03:59PM 30.7278 -99.1431 289° West 290 334 24,000  Level Houston Center
04:00PM 30.7539 -99.2308 289° West 289 333 24,000  Level Houston Center
04:01PM 30.7936 -99.3125 300° West 290 334 24,000  Level Houston Center
04:02PM 30.8333 -99.3978 298° West 298 343 24,000  Level Houston Center
04:03PM 30.8783 -99.4975 298° West 293 337 24,000  Level Houston Center
04:04PM 30.9164 -99.5800 298° West 294 338 24,000  Level Houston Center
04:05PM 30.9550 -99.6647 298° West 298 343 24,000  Level Houston Center
04:06PM 30.9944 -99.7506 298° West 300 345 24,000  Level Houston Center
04:08PM 31.0339 -99.8342 299° West 295 339 24,000  Level Houston Center
04:09PM 31.0803 -99.9347 298° West 293 337 24,000  Level Houston Center
04:10PM 31.1192 -100.0219 298° West 300 345 24,000  Level Houston Center
04:11PM 31.1575 -100.1069 298° West 299 344 24,000  Level Houston Center
04:12PM 31.1967 -100.1919 298° West 298 343 24,000  Level Houston Center
04:13PM 31.2353 -100.2789 297° West 303 349 24,000  Level Houston Center
04:14PM 31.2758 -100.3650 299° West 303 349 24,000  Level Houston Center
04:15PM 31.3214 -100.4706 297° West 304 350 24,000  Level Houston Center
04:16PM 31.3619 -100.5558 299° West 302 348 24,000  Level Houston Center
04:17PM 31.3914 -100.6306 295° West 300 345 24,000  Level Fort Worth Center
04:18PM 31.4408 -100.7369 299° West 300 345 24,000  Level Fort Worth Center
04:19PM 31.4781 -100.8233 297° West 305 351 24,000 -300 Level Fort Worth Center
04:20PM 31.5175 -100.9103 298° West 305 351 23,500 -900 Descending Fort Worth Center
04:21PM 31.5586 -101.0044 297° West 305 351 22,200 -1,320 Descending Fort Worth Center
04:22PM 31.6039 -101.1036 298° West 324 373 20,900 -1,620 Descending Fort Worth Center
04:23PM 31.6469 -101.2006 298° West 329 379 19,100 -1,800 Descending Fort Worth Center
04:24PM 31.6897 -101.3000 297° West 334 384 17,400 -1,740 Descending Fort Worth Center
04:25PM 31.7306 -101.3944 297° West 328 377 15,600 -1,800 Descending Fort Worth Center
04:26PM 31.7714 -101.4867 298° West 328 377 13,900 -1,680 Descending Fort Worth Center
04:27PM 31.8122 -101.5789 298° West 328 377 12,300 -1,560 Descending Fort Worth Center
04:28PM 31.8492 -101.6639 297° West 317 365 10,800 -1,500 Descending Fort Worth Center
04:29PM 31.8858 -101.7461 298° West 300 345 9,300 -1,500 Descending Fort Worth Center
04:30PM 31.9167 -101.8211 296° West 278 320 7,900 -1,260 Descending Fort Worth Center
04:31PM 31.9461 -101.8739 303° West 262 302 6,900 -1,200 Descending Fort Worth Center
04:32PM 31.9978 -101.9500 309° West 251 289 5,600 -1,140 Descending Fort Worth Center
04:33PM 32.0417 -102.0036 314° West 238 274 4,700 -720 Descending Fort Worth Center
04:34PM 32.0772 -102.0567 308° West 226 260 4,200 -600 Descending Fort Worth Center
04:35PM 32.0692 -102.1103 260° West 178 205 3,500 -480 Descending Fort Worth Center
04:36PM 32.0572 -102.1489 250° West 135 155 3,200 5,160 Descending Fort Worth Center
04:37PM 32.0556 -102.1906 267° West 135 155 14,000 5,400 Climbing Fort Worth Center
04:38PM 32.0539 -102.2344 267° West 135 155 14,000  Level Fort Worth Center